Time;durP1;ratioP1;P1;durP2;ratioP2;P2;SDS_P1;SDS_P2;PMS_P1;PMS_P2;Temp;Humidity;BMP_temperature;BMP_pressure;BME280_temperature;BME280_humidity;BME280_pressure;Samples;Min_cycle;Max_cycle;Signal;HPM_P1;HPM_P2
2023/08/04 00:01:38;;;;;;;4.10;2.97;;;;;;;16.56;100.00;98821.84;5065983;28;20241;-75
2023/08/04 00:04:05;;;;;;;4.47;2.50;;;;;;;16.58;100.00;98816.19;5072222;28;20191;-74
2023/08/04 00:06:32;;;;;;;2.87;2.37;;;;;;;16.59;100.00;98834.03;5077264;28;20315;-75
2023/08/04 00:08:58;;;;;;;3.23;2.10;;;;;;;16.54;100.00;98828.63;5105885;28;20247;-77
2023/08/04 00:11:25;;;;;;;5.27;2.50;;;;;;;16.61;100.00;98835.38;5098145;28;20210;-75
2023/08/04 00:13:52;;;;;;;4.37;2.50;;;;;;;16.55;100.00;98830.25;5100900;28;20645;-75
2023/08/04 00:16:18;;;;;;;3.67;2.37;;;;;;;16.56;100.00;98821.06;5100452;28;20229;-74
2023/08/04 00:18:45;;;;;;;2.63;2.17;;;;;;;16.56;100.00;98821.06;5102858;28;20192;-75
2023/08/04 00:21:11;;;;;;;3.43;2.50;;;;;;;16.54;100.00;98821.31;5105042;28;20200;-75
2023/08/04 00:23:38;;;;;;;4.40;2.50;;;;;;;16.54;100.00;98829.44;5098956;28;20671;-74
2023/08/04 00:26:05;;;;;;;3.70;2.50;;;;;;;16.55;100.00;98822.13;5101778;28;20277;-75
2023/08/04 00:28:31;;;;;;;3.13;2.27;;;;;;;16.55;100.00;98822.13;5098579;28;20196;-75
2023/08/04 00:30:58;;;;;;;3.13;2.47;;;;;;;16.55;100.00;98838.38;5097337;28;20191;-75
2023/08/04 00:33:25;;;;;;;2.67;2.47;;;;;;;16.53;100.00;98833.22;5076353;28;20212;-75
2023/08/04 00:35:51;;;;;;;2.83;2.40;;;;;;;16.53;100.00;98822.41;5072111;28;20209;-76
2023/08/04 00:38:18;;;;;;;4.67;2.73;;;;;;;16.53;100.00;98827.00;5086424;28;20342;-76
2023/08/04 00:40:45;;;;;;;3.73;2.47;;;;;;;16.53;100.00;98848.63;5097573;28;20236;-75
2023/08/04 00:43:12;;;;;;;5.63;2.90;;;;;;;16.54;100.00;98866.47;5095485;28;20303;-75
2023/08/04 00:45:38;;;;;;;3.10;2.70;;;;;;;16.53;100.00;98873.78;5083255;28;20670;-74
2023/08/04 00:48:05;;;;;;;5.13;2.77;;;;;;;16.49;100.00;98870.00;5075418;28;20202;-75
2023/08/04 00:50:32;;;;;;;3.67;2.70;;;;;;;16.49;100.00;98866.50;5094478;28;20219;-76
2023/08/04 00:53:00;;;;;;;4.83;2.93;;;;;;;16.48;100.00;98871.09;5099856;28;20290;-75
2023/08/04 00:55:27;;;;;;;4.57;2.70;;;;;;;16.50;100.00;98865.41;5075226;28;20240;-76
2023/08/04 00:57:55;;;;;;;3.33;2.57;;;;;;;16.46;100.00;98873.28;5101702;28;20275;-76
2023/08/04 01:00:21;;;;;;;3.13;2.73;;;;;;;16.45;100.00;98865.44;5087322;28;20206;-74
2023/08/04 01:02:48;;;;;;;3.77;3.00;;;;;;;16.42;100.00;98857.88;5080649;28;20228;-77
2023/08/04 01:05:15;;;;;;;2.80;2.50;;;;;;;16.43;100.00;98852.19;5090277;28;20185;-76
2023/08/04 01:07:50;;;;;;;4.23;2.87;;;;;;;16.50;100.00;98846.50;5086803;28;20256;-76
2023/08/04 01:10:24;;;;;;;5.73;3.10;;;;;;;16.45;100.00;98857.31;5085164;28;20219;-76
2023/08/04 01:13:00;;;;;;;4.33;2.87;;;;;;;16.42;100.00;98866.81;5084886;28;20191;-75
2023/08/04 01:15:27;;;;;;;4.53;2.90;;;;;;;16.45;100.00;98868.94;5098050;28;20772;-77
2023/08/04 01:17:55;;;;;;;3.63;2.87;;;;;;;16.45;100.00;98870.84;5112875;28;20192;-75
2023/08/04 01:20:22;;;;;;;4.77;3.30;;;;;;;16.40;100.00;98855.44;5111614;28;20284;-73
2023/08/04 01:22:50;;;;;;;3.00;2.70;;;;;;;16.42;100.00;98857.88;5094461;28;20319;-74
2023/08/04 01:25:18;;;;;;;3.83;3.00;;;;;;;16.42;100.00;98863.28;5086087;28;20206;-76
2023/08/04 01:27:50;;;;;;;6.13;3.13;;;;;;;16.40;100.00;98846.53;5094566;28;20643;-76
2023/08/04 01:30:20;;;;;;;4.47;2.93;;;;;;;16.35;100.00;98838.44;5091288;28;20254;-75
2023/08/04 01:32:47;;;;;;;4.63;3.10;;;;;;;16.34;100.00;98847.63;5094345;28;20201;-76
2023/08/04 01:35:14;;;;;;;4.43;3.10;;;;;;;16.32;100.00;98842.50;5111963;28;20699;-75
2023/08/04 01:37:43;;;;;;;5.07;3.13;;;;;;;16.33;100.00;98854.13;5081841;28;20210;-75
2023/08/04 01:40:13;;;;;;;4.13;2.77;;;;;;;16.38;100.00;98878.44;5072548;28;20209;-75
2023/08/04 01:42:40;;;;;;;3.50;2.30;;;;;;;16.44;100.00;98896.25;5105779;28;20676;-75
2023/08/04 01:45:07;;;;;;;2.77;2.20;;;;;;;16.38;100.00;98897.38;5091369;28;20716;-76
2023/08/04 01:47:34;;;;;;;3.37;2.17;;;;;;;16.34;100.00;98894.38;5103631;28;20195;-75
2023/08/04 01:50:01;;;;;;;4.63;2.33;;;;;;;16.32;100.00;98885.75;5086541;28;20714;-74
2023/08/04 01:52:27;;;;;;;2.70;2.40;;;;;;;16.28;100.00;98892.81;5099226;28;20204;-74
2023/08/04 01:54:54;;;;;;;3.13;2.50;;;;;;;16.26;100.00;98897.66;5101446;28;20556;-74
2023/08/04 01:57:21;;;;;;;3.03;2.40;;;;;;;16.25;100.00;98898.72;5072460;28;20186;-74
2023/08/04 01:59:48;;;;;;;2.67;2.43;;;;;;;16.20;100.00;98899.56;5103612;28;20271;-76
2023/08/04 02:02:14;;;;;;;3.60;2.43;;;;;;;16.19;100.00;98903.34;5083727;28;20217;-75
2023/08/04 02:04:41;;;;;;;2.87;2.30;;;;;;;16.19;100.00;98899.84;5088536;28;20197;-75
2023/08/04 02:07:08;;;;;;;2.67;2.27;;;;;;;16.21;100.00;98884.97;5086539;28;20720;-75
2023/08/04 02:09:34;;;;;;;2.60;2.40;;;;;;;16.17;100.00;98899.31;5063000;28;20195;-76
2023/08/04 02:12:01;;;;;;;3.43;2.57;;;;;;;16.17;100.00;98900.13;5068686;28;20633;-76
2023/08/04 02:14:28;;;;;;;2.57;2.30;;;;;;;16.17;100.00;98908.22;5068842;28;20226;-76
2023/08/04 02:16:55;;;;;;;3.13;2.43;;;;;;;16.17;100.00;98919.03;5067296;28;20506;-76
2023/08/04 02:19:22;;;;;;;5.00;2.40;;;;;;;16.18;100.00;98926.06;5063757;28;20194;-76
2023/08/04 02:21:50;;;;;;;3.03;2.40;;;;;;;16.17;100.00;98935.25;5066313;28;20211;-75
2023/08/04 02:24:17;;;;;;;4.97;2.30;;;;;;;16.19;100.00;98949.28;5067769;28;20606;-75
2023/08/04 02:26:44;;;;;;;2.83;2.30;;;;;;;16.17;100.00;98956.06;5067457;28;20248;-75
2023/08/04 02:29:12;;;;;;;3.00;2.53;;;;;;;16.12;100.00;98959.56;5056351;28;20567;-75
2023/08/04 02:31:39;;;;;;;3.73;2.20;;;;;;;16.13;100.00;98963.91;5063410;28;20207;-76
2023/08/04 02:34:06;;;;;;;3.30;2.50;;;;;;;16.13;100.00;98973.91;5065999;28;20216;-75
2023/08/04 02:36:33;;;;;;;3.63;2.33;;;;;;;16.16;100.00;98971.44;5072316;28;20217;-76
2023/08/04 02:39:00;;;;;;;3.63;2.57;;;;;;;16.20;100.00;98972.53;5070923;28;20216;-75
2023/08/04 02:41:26;;;;;;;4.60;2.47;;;;;;;16.17;100.00;98974.97;5068330;28;20255;-75
2023/08/04 02:43:53;;;;;;;3.97;2.40;;;;;;;16.13;100.00;98968.50;5071177;28;20246;-75
2023/08/04 02:46:22;;;;;;;2.87;2.40;;;;;;;16.12;100.00;98956.88;5066834;28;20252;-75
2023/08/04 02:48:49;;;;;;;2.30;2.10;;;;;;;16.11;100.00;98951.72;5073122;28;20621;-76
2023/08/04 02:51:16;;;;;;;5.30;2.40;;;;;;;16.13;100.00;98960.38;5072611;28;20316;-78
2023/08/04 02:53:46;;;;;;;4.47;2.50;;;;;;;16.12;100.00;98970.38;5071008;28;20196;-77
2023/08/04 02:56:15;;;;;;;3.57;2.00;;;;;;;16.11;100.00;98973.34;5058451;28;20215;-77
2023/08/04 02:58:42;;;;;;;2.83;1.80;;;;;;;16.10;100.00;98974.41;5068979;28;20647;-75
2023/08/04 03:01:10;;;;;;;3.87;2.30;;;;;;;16.10;100.00;98969.00;5074460;28;20689;-76
2023/08/04 03:03:37;;;;;;;3.57;2.30;;;;;;;16.13;100.00;98961.19;5046373;28;20697;-76
2023/08/04 03:06:04;;;;;;;3.57;2.27;;;;;;;16.10;100.00;98956.31;5076943;28;20195;-76
2023/08/04 03:08:31;;;;;;;3.10;2.43;;;;;;;16.06;100.00;98944.44;5114514;28;20239;-77
2023/08/04 03:10:58;;;;;;;4.30;2.90;;;;;;;16.04;100.00;98938.50;5088745;28;20275;-77
2023/08/04 03:13:25;;;;;;;2.70;2.20;;;;;;;16.06;100.00;98946.31;5107322;28;20217;-77
2023/08/04 03:16:00;;;;;;;3.03;2.57;;;;;;;16.06;100.00;98940.91;5110729;28;20193;-77
2023/08/04 03:18:27;;;;;;;4.40;2.60;;;;;;;16.04;100.00;98945.81;5097074;28;20241;-78
2023/08/04 03:20:54;;;;;;;4.60;2.60;;;;;;;16.02;100.00;98953.34;5107038;28;20250;-76
2023/08/04 03:23:21;;;;;;;5.13;3.20;;;;;;;16.01;100.00;98951.72;5099304;28;20240;-76
2023/08/04 03:25:49;;;;;;;4.40;2.60;;;;;;;16.01;100.00;98936.34;5113104;28;20201;-77
2023/08/04 03:28:15;;;;;;;3.30;2.60;;;;;;;16.01;100.00;98924.72;5114333;28;20672;-76
2023/08/04 03:30:42;;;;;;;3.97;2.73;;;;;;;16.02;100.00;98924.44;5113164;28;20679;-76
2023/08/04 03:33:09;;;;;;;3.20;2.70;;;;;;;16.02;100.00;98921.75;5114194;28;20287;-75
2023/08/04 03:35:35;;;;;;;4.33;2.90;;;;;;;15.97;100.00;98924.44;5114746;28;20576;-76
2023/08/04 03:38:03;;;;;;;3.00;2.70;;;;;;;15.94;100.00;98913.38;5114030;28;20261;-76
2023/08/04 03:40:30;;;;;;;2.77;2.50;;;;;;;15.94;100.00;98921.50;5105788;28;20221;-78
2023/08/04 03:42:57;;;;;;;2.83;2.53;;;;;;;15.91;100.00;98919.34;5093870;28;20228;-76
2023/08/04 03:45:24;;;;;;;3.63;2.60;;;;;;;15.90;100.00;98915.81;5099692;28;20208;-75
2023/08/04 03:47:50;;;;;;;4.07;2.73;;;;;;;15.89;100.00;98914.19;5111029;28;20229;-76
2023/08/04 03:50:17;;;;;;;3.23;2.93;;;;;;;15.91;100.00;98912.03;5107275;28;20190;-76
2023/08/04 03:52:44;;;;;;;3.57;2.73;;;;;;;15.86;100.00;98902.03;5094976;28;20201;-76
2023/08/04 03:55:10;;;;;;;3.77;2.70;;;;;;;15.85;100.00;98916.63;5101733;28;20193;-76
2023/08/04 03:57:37;;;;;;;6.03;2.90;;;;;;;15.84;100.00;98915.00;5097062;28;20245;-76
2023/08/04 04:00:05;;;;;;;2.70;2.50;;;;;;;15.86;100.00;98909.34;5102417;28;20672;-77
2023/08/04 04:02:37;;;;;;;3.27;2.57;;;;;;;15.85;100.00;98907.72;5100902;28;20212;-76
2023/08/04 04:05:04;;;;;;;2.77;2.27;;;;;;;15.81;100.00;98907.47;5102150;28;20197;-76
2023/08/04 04:07:31;;;;;;;2.77;2.10;;;;;;;15.85;100.00;98905.03;5105957;28;20296;-76
2023/08/04 04:09:57;;;;;;;3.90;2.10;;;;;;;15.86;100.00;98901.25;5104655;28;20189;-76
2023/08/04 04:12:24;;;;;;;3.80;2.03;;;;;;;15.81;100.00;98899.34;5101361;28;20249;-76
2023/08/04 04:14:50;;;;;;;2.63;2.30;;;;;;;15.86;100.00;98903.94;5109360;28;20246;-76
2023/08/04 04:17:17;;;;;;;2.40;2.20;;;;;;;15.85;100.00;98911.25;5113568;28;20622;-76
2023/08/04 04:19:44;;;;;;;3.17;2.13;;;;;;;15.83;100.00;98905.28;5104180;28;20184;-77
2023/08/04 04:22:11;;;;;;;3.33;2.60;;;;;;;15.82;100.00;98909.06;5107498;28;20249;-76
2023/08/04 04:24:37;;;;;;;2.83;2.30;;;;;;;15.84;100.00;98914.19;5113585;28;20220;-76
2023/08/04 04:27:04;;;;;;;3.50;2.47;;;;;;;15.86;100.00;98925.56;5106121;28;20725;-76
2023/08/04 04:29:32;;;;;;;3.93;2.50;;;;;;;15.86;100.00;98930.97;5107663;28;20249;-75
2023/08/04 04:31:59;;;;;;;3.37;2.33;;;;;;;15.90;100.00;98932.03;5111917;28;20192;-76
2023/08/04 04:34:25;;;;;;;4.80;2.70;;;;;;;15.91;100.00;98924.75;5078825;28;20758;-78
2023/08/04 04:36:54;;;;;;;4.40;2.27;;;;;;;15.92;100.00;98927.16;5105219;28;20199;-78
2023/08/04 04:39:21;;;;;;;3.73;2.80;;;;;;;15.95;100.00;98933.91;5095544;28;20666;-77
2023/08/04 04:41:48;;;;;;;3.60;2.70;;;;;;;15.96;100.00;98930.94;5100011;28;20189;-75
2023/08/04 04:44:15;;;;;;;3.03;2.27;;;;;;;16.06;100.00;98933.63;5104701;28;20259;-77
2023/08/04 04:46:42;;;;;;;4.23;2.60;;;;;;;16.03;100.00;98936.06;5105185;28;20246;-76
2023/08/04 04:49:08;;;;;;;3.30;2.57;;;;;;;16.02;100.00;98940.66;5111248;28;20219;-75
2023/08/04 04:51:35;;;;;;;3.63;2.60;;;;;;;16.05;100.00;98934.69;5095794;28;20698;-75
2023/08/04 04:54:02;;;;;;;3.67;2.33;;;;;;;16.12;100.00;98931.72;5085018;28;20614;-76
2023/08/04 04:56:28;;;;;;;3.73;2.80;;;;;;;16.16;100.00;98936.31;5099023;28;20223;-76
2023/08/04 04:58:55;;;;;;;5.20;3.00;;;;;;;16.15;100.00;98940.09;5107114;28;20495;-76
2023/08/04 05:01:21;;;;;;;4.57;2.90;;;;;;;16.19;100.00;98946.56;5110566;28;20627;-76
2023/08/04 05:03:48;;;;;;;3.30;2.90;;;;;;;16.23;100.00;98941.47;5107869;28;20605;-75
2023/08/04 05:06:15;;;;;;;3.20;2.87;;;;;;;16.26;100.00;98949.81;5107725;28;20252;-75
2023/08/04 05:08:41;;;;;;;5.20;3.40;;;;;;;16.32;100.00;98947.13;5100600;28;20249;-76
2023/08/04 05:11:08;;;;;;;4.40;3.00;;;;;;;16.40;100.00;98941.16;5102345;28;20215;-76
2023/08/04 05:13:35;;;;;;;3.73;2.93;;;;;;;16.45;100.00;98933.03;5103395;28;20239;-75
2023/08/04 05:16:01;;;;;;;4.73;3.00;;;;;;;16.50;100.00;98941.13;5112027;28;20185;-76
2023/08/04 05:18:28;;;;;;;3.00;2.50;;;;;;;16.52;100.00;98942.47;5107481;28;20184;-75
2023/08/04 05:20:55;;;;;;;3.20;2.83;;;;;;;16.50;100.00;98950.06;5111975;28;20205;-76
2023/08/04 05:23:22;;;;;;;2.57;2.33;;;;;;;16.58;100.00;98956.81;5111879;28;20657;-75
2023/08/04 05:25:48;;;;;;;3.30;2.40;;;;;;;16.62;100.00;98953.28;5108881;28;20204;-77
2023/08/04 05:28:30;;;;;;;3.10;2.20;;;;;;;16.69;100.00;98945.69;5111363;28;20208;-75
2023/08/04 05:30:59;;;;;;;3.03;2.10;;;;;;;16.81;100.00;98937.25;5102043;28;20279;-75
2023/08/04 05:33:27;;;;;;;3.37;2.10;;;;;;;16.92;100.00;98929.91;5093705;28;20227;-76
2023/08/04 05:35:53;;;;;;;3.57;2.00;;;;;;;17.03;100.00;98916.03;5085552;28;20217;-76
2023/08/04 05:38:21;;;;;;;3.87;2.20;;;;;;;17.10;100.00;98919.28;5082564;28;20194;-76
2023/08/04 05:40:48;;;;;;;3.23;2.07;;;;;;;17.18;100.00;98915.97;5102703;28;20228;-76
2023/08/04 05:43:15;;;;;;;2.20;2.00;;;;;;;17.27;100.00;98916.19;5099680;28;20215;-76
2023/08/04 05:45:47;;;;;;;3.33;1.90;;;;;;;17.43;100.00;98930.44;5097575;28;20246;-75
2023/08/04 05:48:14;;;;;;;2.47;1.67;;;;;;;17.58;100.00;98946.59;5102920;28;20202;-75
2023/08/04 05:50:41;;;;;;;1.60;1.50;;;;;;;17.74;100.00;98936.47;5091870;28;20619;-75
2023/08/04 05:53:08;;;;;;;2.17;1.80;;;;;;;17.79;100.00;98933.72;5091766;28;20203;-75
2023/08/04 05:55:36;;;;;;;2.50;1.50;;;;;;;17.73;100.00;98932.94;5104688;28;20645;-74
2023/08/04 05:58:03;;;;;;;1.77;1.50;;;;;;;17.72;100.00;98935.97;5103571;28;20219;-75
2023/08/04 06:00:30;;;;;;;2.87;1.67;;;;;;;17.73;100.00;98937.59;5100753;28;20195;-76
2023/08/04 06:02:57;;;;;;;2.00;1.40;;;;;;;17.79;100.00;98937.25;5092639;28;20277;-78
2023/08/04 06:05:24;;;;;;;1.87;1.50;;;;;;;17.83;100.00;98949.13;5090012;28;20193;-76
2023/08/04 06:07:51;;;;;;;1.77;1.20;;;;;;;17.84;100.00;98945.34;5059801;28;1179556;-75
2023/08/04 06:10:19;;;;;;;2.80;1.50;;;;;;;17.93;100.00;98945.53;5091561;28;20230;-76
2023/08/04 06:12:46;;;;;;;2.40;1.50;;;;;;;18.01;100.00;98945.72;5077321;28;20192;-74
2023/08/04 06:15:13;;;;;;;2.13;1.30;;;;;;;18.09;100.00;98957.88;5098159;28;20229;-75
2023/08/04 06:17:41;;;;;;;3.27;1.50;;;;;;;18.14;100.00;98951.59;5092912;28;20193;-75
2023/08/04 06:20:08;;;;;;;1.53;1.40;;;;;;;18.19;100.00;98960.50;5096498;28;20193;-75
2023/08/04 06:22:35;;;;;;;2.40;1.27;;;;;;;18.24;100.00;98965.88;5092180;28;20200;-75
2023/08/04 06:25:03;;;;;;;1.53;1.20;;;;;;;18.26;100.00;98963.69;5098145;28;20285;-76
2023/08/04 06:27:30;;;;;;;2.63;1.20;;;;;;;18.25;100.00;98958.53;5095731;28;20241;-75
2023/08/04 06:29:58;;;;;;;4.10;1.17;;;;;;;18.34;100.00;98970.38;5097708;28;20196;-75
2023/08/04 06:32:26;;;;;;;1.00;1.00;;;;;;;18.41;100.00;98966.25;5089364;28;20259;-74
2023/08/04 06:34:53;;;;;;;1.50;0.90;;;;;;;18.47;100.00;98967.81;5096878;28;20218;-76
2023/08/04 06:37:19;;;;;;;2.07;1.00;;;;;;;18.58;100.00;98973.16;5109442;28;20185;-75
2023/08/04 06:39:46;;;;;;;1.13;0.97;;;;;;;18.66;100.00;98976.06;5103257;28;20702;-75
2023/08/04 06:42:13;;;;;;;1.10;0.97;;;;;;;18.75;100.00;98973.53;5105011;28;20203;-74
2023/08/04 06:44:39;;;;;;;2.30;1.10;;;;;;;18.82;100.00;98969.34;5104289;28;20260;-74
2023/08/04 06:47:06;;;;;;;1.47;1.10;;;;;;;18.90;100.00;98967.91;5099721;28;20226;-74
2023/08/04 06:49:34;;;;;;;1.83;1.00;;;;;;;18.98;100.00;98958.31;5104008;28;20191;-75
2023/08/04 06:52:02;;;;;;;2.13;0.90;;;;;;;18.87;100.00;98961.16;5095576;28;20203;-75
2023/08/04 06:54:29;;;;;;;1.00;0.90;;;;;;;18.81;100.00;98956.06;5102730;28;20195;-74
2023/08/04 06:56:56;;;;;;;1.30;0.90;;;;;;;18.78;100.00;98965.59;5105997;28;20200;-76
2023/08/04 06:59:22;;;;;;;1.40;0.90;;;;;;;18.79;100.00;98969.13;5104591;28;20235;-76
2023/08/04 07:01:49;;;;;;;1.50;0.97;;;;;;;18.78;100.00;98967.50;5106069;28;20225;-74
2023/08/04 07:04:16;;;;;;;1.83;1.00;;;;;;;18.85;100.00;98978.81;5110117;28;20251;-75
2023/08/04 07:06:43;;;;;;;1.60;0.90;;;;;;;19.03;100.00;98969.13;5102743;28;20780;-75
2023/08/04 07:09:10;;;;;;;2.33;0.90;;;;;;;19.25;100.00;98972.09;5101878;28;20739;-75
2023/08/04 07:11:36;;;;;;;1.30;0.90;;;;;;;19.51;100.00;98969.84;5104441;28;20215;-74
2023/08/04 07:14:03;;;;;;;1.20;1.07;;;;;;;19.68;100.00;98962.81;5107564;28;20199;-74
2023/08/04 07:16:30;;;;;;;1.37;0.80;;;;;;;19.82;100.00;98960.16;5109227;28;20187;-74
2023/08/04 07:18:56;;;;;;;1.07;0.97;;;;;;;19.99;100.00;98968.56;5114869;28;20271;-75
2023/08/04 07:21:23;;;;;;;3.53;1.27;;;;;;;20.05;100.00;98972.03;5114829;28;20190;-76
2023/08/04 07:23:50;;;;;;;1.23;1.03;;;;;;;20.05;100.00;98975.56;5111894;28;20232;-74
2023/08/04 07:26:16;;;;;;;2.00;1.00;;;;;;;20.04;100.00;98967.69;5108257;28;20191;-75
2023/08/04 07:28:43;;;;;;;1.53;1.20;;;;;;;20.01;100.00;98969.09;5093290;28;20283;-74
2023/08/04 07:31:10;;;;;;;1.80;0.97;;;;;;;20.11;100.00;98968.13;5104325;28;20187;-75
2023/08/04 07:33:37;;;;;;;1.10;1.10;;;;;;;20.09;100.00;98970.31;5098472;28;20198;-74
2023/08/04 07:36:04;;;;;;;2.40;1.30;;;;;;;20.03;100.00;98971.50;5104808;28;20215;-74
2023/08/04 07:38:31;;;;;;;1.73;1.33;;;;;;;19.98;100.00;98975.09;5080748;28;20620;-74
2023/08/04 07:40:58;;;;;;;1.73;1.20;;;;;;;19.91;100.00;98977.41;5102949;28;20285;-75
2023/08/04 07:43:25;;;;;;;1.48;1.02;;;;;;;19.83;100.00;98983.50;5103894;28;20199;-74
2023/08/04 07:45:53;;;;;;;2.60;1.30;;;;;;;19.80;100.00;98975.94;5101230;28;20226;-74
2023/08/04 07:48:21;;;;;;;2.13;1.10;;;;;;;19.85;100.00;98981.31;5090870;28;20656;-74
2023/08/04 07:50:50;;;;;;;2.87;1.20;;;;;;;19.99;100.00;98984.88;5086029;28;20191;-76
2023/08/04 07:53:17;;;;;;;1.50;1.20;;;;;;;20.12;100.00;98970.53;5090923;28;20282;-74
2023/08/04 07:55:58;;;;;;;2.57;1.40;;;;;;;20.43;100.00;98980.91;5094118;28;20195;-74
2023/08/04 07:58:25;;;;;;;2.53;1.20;;;;;;;20.89;100.00;98983.59;5103954;28;20190;-77
2023/08/04 08:00:52;;;;;;;1.30;1.10;;;;;;;21.41;100.00;98991.25;5114730;28;20270;-76
2023/08/04 08:03:19;;;;;;;1.57;1.30;;;;;;;21.68;100.00;99003.19;5079022;28;20658;-77
2023/08/04 08:05:47;;;;;;;1.23;0.90;;;;;;;21.53;100.00;98991.50;5089520;28;20243;-77
2023/08/04 08:08:17;;;;;;;1.83;1.27;;;;;;;21.44;100.00;98987.09;5110997;28;20693;-77
2023/08/04 08:10:43;;;;;;;1.35;1.13;;;;;;;21.56;100.00;98990.06;5086446;28;20693;-75
2023/08/04 08:13:10;;;;;;;1.73;1.20;;;;;;;21.65;100.00;98998.34;5099882;28;20219;-76
2023/08/04 08:15:36;;;;;;;1.98;1.00;;;;;;;21.58;100.00;98995.22;5113664;28;20229;-76
2023/08/04 08:18:03;;;;;;;3.42;1.10;;;;;;;21.47;100.00;98994.63;5112636;28;20275;-77
2023/08/04 08:20:30;;;;;;;1.42;1.00;;;;;;;21.37;100.00;98979.31;5113668;28;20191;-76
2023/08/04 08:22:57;;;;;;;1.13;1.00;;;;;;;21.47;100.00;98976.38;5104997;28;20250;-78
2023/08/04 08:25:23;;;;;;;1.83;0.90;;;;;;;21.62;100.00;98968.97;5089810;28;20247;-77
2023/08/04 08:27:50;;;;;;;1.60;1.00;;;;;;;21.91;100.00;98970.19;5102481;28;20220;-77
2023/08/04 08:30:17;;;;;;;1.63;0.95;;;;;;;22.07;100.00;98981.53;5096821;28;20200;-77
2023/08/04 08:32:44;;;;;;;1.20;0.80;;;;;;;22.22;100.00;98983.91;5085144;28;20199;-77
2023/08/04 08:35:10;;;;;;;2.72;0.80;;;;;;;22.38;100.00;98982.41;5112404;28;20630;-76
2023/08/04 08:37:37;;;;;;;2.40;1.10;;;;;;;22.58;100.00;98983.00;5103891;28;20267;-76
2023/08/04 08:40:04;;;;;;;1.27;0.80;;;;;;;22.76;100.00;98987.44;5106816;28;20275;-77
2023/08/04 08:42:34;;;;;;;1.77;0.88;;;;;;;22.96;100.00;98983.31;5103185;28;20212;-77
2023/08/04 08:45:01;;;;;;;1.63;0.80;;;;;;;23.09;100.00;98983.22;5100980;28;20208;-78
2023/08/04 08:47:34;;;;;;;0.98;0.73;;;;;;;23.16;100.00;98982.75;5105110;28;20226;-77
2023/08/04 08:50:01;;;;;;;2.35;0.80;;;;;;;23.10;100.00;98989.47;5081787;28;20245;-77
2023/08/04 08:52:37;;;;;;;1.13;0.95;;;;;;;22.87;100.00;98985.22;5087664;28;20200;-77
2023/08/04 08:55:05;;;;;;;1.17;0.85;;;;;;;22.59;100.00;98990.03;5099401;28;20650;-77
2023/08/04 08:57:32;;;;;;;1.38;0.80;;;;;;;22.28;100.00;99000.94;5112775;28;20184;-78
2023/08/04 09:00:00;;;;;;;0.70;0.70;;;;;;;21.97;100.00;98997.38;5091413;28;20271;-77
2023/08/04 09:05:19;;;;;;;1.17;0.75;;;;;;;21.63;100.00;98987.75;5096803;28;20298;-77
2023/08/04 09:07:47;;;;;;;1.38;0.98;;;;;;;21.48;100.00;98980.72;5074478;28;20715;-77
2023/08/04 09:10:14;;;;;;;1.17;0.98;;;;;;;21.45;100.00;98980.53;5064340;28;20558;-78
2023/08/04 09:12:45;;;;;;;1.30;0.80;;;;;;;21.35;100.00;98978.84;5069776;28;20211;-79
2023/08/04 09:15:12;;;;;;;2.83;0.93;;;;;;;21.32;100.00;98979.44;5064392;28;20678;-77
2023/08/04 09:17:41;;;;;;;2.15;1.27;;;;;;;21.22;100.00;98974.22;5071807;28;20193;-78
2023/08/04 09:20:09;;;;;;;1.60;0.80;;;;;;;21.17;100.00;98974.31;5064146;28;20721;-77
2023/08/04 09:22:41;;;;;;;1.65;0.85;;;;;;;21.13;100.00;98984.22;5078397;28;20663;-77
2023/08/04 09:25:09;;;;;;;1.20;0.93;;;;;;;21.12;100.00;98987.19;5065064;28;20230;-77
2023/08/04 09:27:38;;;;;;;1.70;0.93;;;;;;;21.06;100.00;98976.41;5071638;28;20243;-76
2023/08/04 09:30:10;;;;;;;1.38;0.90;;;;;;;21.08;100.00;98968.75;5061450;28;20566;-76
2023/08/04 09:32:47;;;;;;;1.55;0.95;;;;;;;21.13;100.00;98969.75;5062774;28;20198;-76
2023/08/04 09:35:14;;;;;;;2.35;0.80;;;;;;;21.24;100.00;98960.28;5059151;28;20209;-76
2023/08/04 09:37:41;;;;;;;2.20;0.80;;;;;;;21.47;100.00;98964.66;5064626;28;20184;-76
2023/08/04 09:40:26;;;;;;;1.20;0.90;;;;;;;21.83;100.00;98957.28;5067334;28;20211;-77
2023/08/04 09:42:57;;;;;;;1.60;1.00;;;;;;;22.53;100.00;98953.91;5066349;28;21088;-79
2023/08/04 09:45:23;;;;;;;0.93;0.80;;;;;;;23.23;100.00;98945.66;5064318;28;20218;-77
2023/08/04 09:47:51;;;;;;;1.05;0.90;;;;;;;23.67;100.00;98947.31;5067490;28;20185;-77
2023/08/04 09:50:18;;;;;;;1.55;0.80;;;;;;;24.15;100.00;98962.72;5070264;28;20199;-76
2023/08/04 09:52:45;;;;;;;1.20;0.98;;;;;;;24.42;100.00;98973.31;5065232;28;20182;-78
2023/08/04 09:55:12;;;;;;;1.10;1.00;;;;;;;24.61;100.00;98974.88;5068051;28;20631;-76
2023/08/04 09:57:39;;;;;;;1.00;0.77;;;;;;;24.70;100.00;98970.16;5059279;28;20663;-76
2023/08/04 10:00:07;;;;;;;1.17;0.88;;;;;;;24.65;100.00;98973.88;5068298;28;20721;-78
2023/08/04 10:02:35;;;;;;;1.25;1.00;;;;;;;24.53;100.00;98980.06;5068578;28;20204;-78
2023/08/04 10:05:03;;;;;;;1.60;1.13;;;;;;;24.23;100.00;98992.03;5068128;28;20216;-78
2023/08/04 10:07:31;;;;;;;1.15;0.93;;;;;;;23.96;100.00;99006.84;5064074;28;20257;-78
2023/08/04 10:10:00;;;;;;;2.10;1.08;;;;;;;23.60;100.00;99015.38;5065827;28;20200;-77
2023/08/04 10:12:28;;;;;;;1.92;1.05;;;;;;;23.27;100.00;99041.47;5045339;28;20681;-77
2023/08/04 10:14:55;;;;;;;3.17;1.00;;;;;;;22.91;100.00;99046.31;5049471;28;20218;-77
2023/08/04 10:17:22;;;;;;;1.20;1.00;;;;;;;22.53;100.00;99048.63;5067174;28;20200;-78
2023/08/04 10:19:49;;;;;;;2.97;1.25;;;;;;;22.22;100.00;99043.09;5067471;28;20189;-77
2023/08/04 10:22:17;;;;;;;2.03;1.20;;;;;;;21.92;100.00;99039.97;5045872;28;20189;-76
2023/08/04 10:24:43;;;;;;;1.08;1.00;;;;;;;21.71;100.00;99032.53;5066953;28;20695;-77
2023/08/04 10:27:20;;;;;;;1.33;1.00;;;;;;;21.57;100.00;99029.84;5070193;28;20209;-76
2023/08/04 10:30:10;;;;;;;2.20;0.95;;;;;;;21.58;100.00;99008.84;5057650;28;20203;-75
2023/08/04 10:32:38;;;;;;;1.60;1.00;;;;;;;21.77;100.00;99013.06;5063364;28;20200;-79
2023/08/04 10:35:19;;;;;;;1.25;1.15;;;;;;;21.97;100.00;99014.53;5070091;28;20688;-77
2023/08/04 10:37:53;;;;;;;2.17;1.17;;;;;;;22.15;100.00;99010.00;5056392;28;20286;-78
2023/08/04 10:40:30;;;;;;;2.05;1.10;;;;;;;22.25;100.00;99017.94;5065130;28;20881;-77
2023/08/04 10:42:59;;;;;;;2.28;1.10;;;;;;;22.20;100.00;99007.16;5067191;28;20200;-77
2023/08/04 10:46:01;;;;;;;2.38;1.13;;;;;;;22.22;100.00;99010.38;5070823;28;20240;-77
2023/08/04 10:48:28;;;;;;;2.88;1.30;;;;;;;22.15;100.00;99007.28;5071131;28;20228;-76
2023/08/04 10:50:55;;;;;;;1.90;1.00;;;;;;;22.19;100.00;99000.91;5068351;28;20369;-78
2023/08/04 10:53:22;;;;;;;1.38;1.00;;;;;;;22.38;100.00;98996.03;5073688;28;20197;-77
2023/08/04 10:55:56;;;;;;;1.38;1.10;;;;;;;22.57;100.00;98995.03;5073101;28;20663;-78
2023/08/04 10:58:24;;;;;;;1.63;1.08;;;;;;;22.60;100.00;98988.94;5072153;28;20284;-78
2023/08/04 11:00:55;;;;;;;3.28;1.20;;;;;;;22.70;100.00;98986.75;5072149;28;20193;-77
2023/08/04 11:03:36;;;;;;;2.10;1.33;;;;;;;22.69;100.00;98985.13;5069984;28;20189;-77
2023/08/04 11:06:03;;;;;;;1.40;1.30;;;;;;;22.64;100.00;98977.06;5057733;28;20671;-76
2023/08/04 11:08:30;;;;;;;1.27;1.17;;;;;;;22.71;100.00;98984.84;5071198;28;20208;-77
2023/08/04 11:10:57;;;;;;;2.83;1.15;;;;;;;22.77;100.00;98980.84;5065374;28;20186;-77
2023/08/04 11:13:25;;;;;;;1.27;1.02;;;;;;;22.85;100.00;98971.09;5067420;28;20203;-77
2023/08/04 11:15:55;;;;;;;1.40;1.20;;;;;;;22.97;100.00;98965.81;5068748;28;20188;-76
2023/08/04 11:18:24;;;;;;;2.05;1.40;;;;;;;23.32;100.00;98953.84;5073856;28;20218;-77
2023/08/04 11:20:52;;;;;;;2.00;1.42;;;;;;;23.85;100.00;98955.50;5066305;28;20664;-77
2023/08/04 11:23:26;;;;;;;2.65;1.20;;;;;;;24.42;100.00;98945.94;5067856;28;20212;-76
2023/08/04 11:25:54;;;;;;;3.08;1.45;;;;;;;24.77;100.00;98956.78;5066450;28;20754;-76
2023/08/04 11:28:21;;;;;;;1.75;1.30;;;;;;;25.23;100.00;98956.72;5067782;28;20258;-76
2023/08/04 11:30:53;;;;;;;1.40;1.30;;;;;;;25.43;100.00;98953.19;5067380;28;20246;-77